createdAt,value
2023-02-11T00:00:42.586Z,3.88
2023-02-11T00:03:09.968Z,4.43
2023-02-11T00:05:36.678Z,3.38
2023-02-11T00:08:03.435Z,3.78
2023-02-11T00:10:30.261Z,3.78
2023-02-11T00:12:59.040Z,4.30
2023-02-11T00:15:28.753Z,4.72
2023-02-11T00:17:55.496Z,3.95
2023-02-11T00:20:22.217Z,3.65
2023-02-11T00:22:48.997Z,3.50
2023-02-11T00:25:15.707Z,4.13
2023-02-11T00:27:45.547Z,4.50
2023-02-11T00:30:13.112Z,4.70
2023-02-11T00:32:39.842Z,3.90
2023-02-11T00:35:07.017Z,3.63
2023-02-11T00:37:36.402Z,3.75
2023-02-11T00:40:06.714Z,4.72
2023-02-11T00:42:35.517Z,4.53
2023-02-11T00:45:02.754Z,3.53
2023-02-11T00:47:29.654Z,3.90
2023-02-11T00:49:56.365Z,4.20
2023-02-11T00:52:23.035Z,3.80
2023-02-11T00:54:49.705Z,4.38
2023-02-11T00:57:16.439Z,3.63
2023-02-11T00:59:43.430Z,3.83
2023-02-11T01:02:10.162Z,4.07
2023-02-11T01:04:36.961Z,4.10
2023-02-11T01:07:03.792Z,4.10
2023-02-11T01:09:30.476Z,4.07
2023-02-11T01:11:57.492Z,4.75
2023-02-11T01:14:24.202Z,4.45
2023-02-11T01:16:51.358Z,4.07
2023-02-11T01:19:20.155Z,4.07
2023-02-11T01:21:46.871Z,4.45
2023-02-11T01:24:13.664Z,4.22
2023-02-11T01:26:42.541Z,4.35
2023-02-11T01:29:09.458Z,5.20
2023-02-11T01:31:36.452Z,4.97
2023-02-11T01:34:03.517Z,5.25
2023-02-11T01:36:30.346Z,4.80
2023-02-11T01:38:57.097Z,4.43
2023-02-11T01:41:23.830Z,5.28
2023-02-11T01:43:51.041Z,5.85
2023-02-11T01:46:34.475Z,5.30
2023-02-11T01:49:06.151Z,4.63
2023-02-11T01:51:53.088Z,5.10
2023-02-11T01:54:42.331Z,5.18
2023-02-11T01:57:22.244Z,5.03
2023-02-11T02:00:14.388Z,4.63
2023-02-11T02:02:47.566Z,4.50
2023-02-11T02:05:32.415Z,5.30
2023-02-11T02:08:16.064Z,5.72
2023-02-11T02:10:45.888Z,4.75
2023-02-11T02:13:13.142Z,5.63
2023-02-11T02:16:12.436Z,5.00
2023-02-11T02:19:16.732Z,4.70
2023-02-11T02:22:14.271Z,5.68
2023-02-11T02:24:43.905Z,4.60
2023-02-11T02:27:10.685Z,4.45
2023-02-11T02:30:22.030Z,5.18
2023-02-11T02:33:21.826Z,6.40
2023-02-11T02:36:09.181Z,5.20
2023-02-11T02:38:53.842Z,4.93
2023-02-11T02:41:27.213Z,5.05
2023-02-11T02:43:57.137Z,5.05
2023-02-11T02:46:30.349Z,5.40
2023-02-11T02:48:58.045Z,6.07
2023-02-11T02:51:36.096Z,4.72
2023-02-11T02:54:21.356Z,6.47
2023-02-11T02:57:26.539Z,5.15
2023-02-11T03:00:08.210Z,7.35
2023-02-11T03:02:59.148Z,5.30
2023-02-11T03:05:54.061Z,6.28
2023-02-11T03:08:25.220Z,5.75
2023-02-11T03:10:53.956Z,6.22
2023-02-11T03:13:28.911Z,6.13
2023-02-11T03:15:58.309Z,6.60
2023-02-11T03:18:28.764Z,5.90
2023-02-11T03:20:57.532Z,6.50
2023-02-11T03:23:30.725Z,6.45
2023-02-11T03:26:26.448Z,6.82
2023-02-11T03:29:05.296Z,6.70
2023-02-11T03:31:49.641Z,7.65
2023-02-11T03:34:23.440Z,7.82
2023-02-11T03:37:17.025Z,6.85
2023-02-11T03:39:53.581Z,7.55
2023-02-11T03:42:22.166Z,7.60
2023-02-11T03:44:56.432Z,7.72
2023-02-11T03:47:27.334Z,8.43
2023-02-11T03:49:56.713Z,7.80
2023-02-11T03:52:27.308Z,9.13
2023-02-11T03:54:58.061Z,8.02
2023-02-11T03:57:25.893Z,10.60
2023-02-11T03:59:57.794Z,9.27
2023-02-11T04:02:28.983Z,8.18
2023-02-11T04:04:55.731Z,9.98
2023-02-11T04:07:22.437Z,9.93
2023-02-11T04:09:49.200Z,9.30
2023-02-11T04:12:20.188Z,9.20
2023-02-11T04:14:50.109Z,9.75
2023-02-11T04:17:17.638Z,9.80
2023-02-11T04:19:44.629Z,9.07
2023-02-11T04:22:11.429Z,10.05
2023-02-11T04:24:39.344Z,10.05
2023-02-11T04:27:06.098Z,11.57
2023-02-11T04:29:36.141Z,12.02
2023-02-11T04:32:04.696Z,11.73
2023-02-11T04:34:31.846Z,12.63
2023-02-11T04:36:58.732Z,12.55
2023-02-11T04:39:25.638Z,12.30
2023-02-11T04:41:55.193Z,12.32
2023-02-11T04:44:23.231Z,11.13
2023-02-11T04:46:49.985Z,12.60
2023-02-11T04:49:17.099Z,11.60
2023-02-11T04:51:47.582Z,12.02
2023-02-11T04:54:15.757Z,11.83
2023-02-11T04:56:42.462Z,11.85
2023-02-11T04:59:09.204Z,12.27
2023-02-11T05:01:36.033Z,12.10
2023-02-11T05:04:02.883Z,12.85
2023-02-11T05:06:29.649Z,12.52
2023-02-11T05:08:56.444Z,11.75
2023-02-11T05:11:25.385Z,12.27
2023-02-11T05:13:52.423Z,13.48
2023-02-11T05:16:20.710Z,12.60
2023-02-11T05:18:47.569Z,12.68
2023-02-11T05:21:16.645Z,13.93
2023-02-11T05:23:44.150Z,14.32
2023-02-11T05:26:12.095Z,14.63
2023-02-11T05:28:39.116Z,14.45
2023-02-11T05:31:11.058Z,13.60
2023-02-11T05:33:38.293Z,15.20
2023-02-11T05:36:08.186Z,13.85
2023-02-11T05:38:37.753Z,13.98
2023-02-11T05:41:07.046Z,15.50
2023-02-11T05:43:35.264Z,15.27
2023-02-11T05:46:02.641Z,15.48
2023-02-11T05:48:29.993Z,17.17
2023-02-11T05:50:56.950Z,14.60
2023-02-11T05:53:23.718Z,16.60
2023-02-11T05:55:51.004Z,15.35
2023-02-11T05:58:18.025Z,15.50
2023-02-11T06:00:44.721Z,17.15
2023-02-11T06:03:11.432Z,16.85
2023-02-11T06:05:39.419Z,15.93
2023-02-11T06:08:06.272Z,15.35
2023-02-11T06:10:35.103Z,18.65
2023-02-11T06:13:02.189Z,15.23
2023-02-11T06:15:29.118Z,17.42
2023-02-11T06:17:56.261Z,18.08
2023-02-11T06:20:23.010Z,18.48
2023-02-11T06:22:49.724Z,17.33
2023-02-11T06:25:16.576Z,18.17
2023-02-11T06:27:43.424Z,17.10
2023-02-11T06:30:10.836Z,18.67
2023-02-11T06:32:45.872Z,17.60
2023-02-11T06:35:14.380Z,17.90
2023-02-11T06:37:42.110Z,17.45
2023-02-11T06:40:10.031Z,16.27
2023-02-11T06:42:38.918Z,18.90
2023-02-11T06:45:06.186Z,18.40
2023-02-11T06:47:33.361Z,17.77
2023-02-11T06:50:04.581Z,17.98
2023-02-11T06:52:31.483Z,15.52
2023-02-11T06:54:58.168Z,17.65
2023-02-11T06:57:25.101Z,19.15
2023-02-11T06:59:52.012Z,16.52
2023-02-11T07:02:20.864Z,16.30
2023-02-11T07:04:47.983Z,19.10
2023-02-11T07:07:14.815Z,19.08
2023-02-11T07:09:41.813Z,19.50
2023-02-11T07:12:11.232Z,18.17
2023-02-11T07:14:38.019Z,20.00
2023-02-11T07:17:05.058Z,20.70
2023-02-11T07:19:31.888Z,19.35
2023-02-11T07:21:58.641Z,20.20
2023-02-11T07:24:25.457Z,19.10
2023-02-11T07:26:54.101Z,18.73
2023-02-11T07:29:21.153Z,20.25
2023-02-11T07:31:48.230Z,20.85
2023-02-11T07:34:18.394Z,19.20
2023-02-11T07:36:45.234Z,18.77
2023-02-11T07:39:12.020Z,21.60
2023-02-11T07:41:38.758Z,21.55
2023-02-11T07:44:05.784Z,20.58
2023-02-11T07:46:32.946Z,22.27
2023-02-11T07:49:00.059Z,20.88
2023-02-11T07:51:31.552Z,21.38
2023-02-11T07:53:59.771Z,22.33
2023-02-11T07:56:27.634Z,23.45
2023-02-11T07:58:56.687Z,20.65
2023-02-11T08:01:28.187Z,21.35
2023-02-11T08:03:56.810Z,22.30
2023-02-11T08:06:25.648Z,23.30
2023-02-11T08:08:52.874Z,21.35
2023-02-11T08:11:25.255Z,20.75
2023-02-11T08:13:52.875Z,21.77
2023-02-11T08:16:47.380Z,22.35
2023-02-11T08:19:16.175Z,22.45
2023-02-11T08:21:43.769Z,20.85
2023-02-11T08:24:16.422Z,22.95
2023-02-11T08:26:43.453Z,22.95
2023-02-11T08:29:13.700Z,24.00
2023-02-11T08:31:43.147Z,23.27
2023-02-11T08:34:11.541Z,20.85
2023-02-11T08:36:39.551Z,24.13
2023-02-11T08:39:18.690Z,21.23
2023-02-11T08:41:51.842Z,19.60
2023-02-11T08:44:20.049Z,21.90
2023-02-11T08:46:47.814Z,22.95
2023-02-11T08:49:15.279Z,25.17
2023-02-11T08:51:42.640Z,23.48
2023-02-11T08:54:09.885Z,24.42
2023-02-11T08:56:37.962Z,23.83
2023-02-11T08:59:05.339Z,23.83
2023-02-11T09:01:33.076Z,22.63
2023-02-11T09:04:01.042Z,24.73
2023-02-11T09:06:28.154Z,23.88
2023-02-11T09:08:56.669Z,23.45
2023-02-11T09:11:30.922Z,23.00
2023-02-11T09:13:57.837Z,24.80
2023-02-11T09:16:28.077Z,22.75
2023-02-11T09:18:57.584Z,25.70
2023-02-11T09:21:25.458Z,24.02
2023-02-11T09:23:52.394Z,24.02
2023-02-11T09:26:25.426Z,23.98
2023-02-11T09:28:52.612Z,24.10
2023-02-11T09:31:22.688Z,21.85
2023-02-11T09:33:52.925Z,22.10
2023-02-11T09:36:22.757Z,24.27
2023-02-11T09:38:49.975Z,22.27
2023-02-11T09:41:32.885Z,24.17
2023-02-11T09:46:41.804Z,22.85
2023-02-11T09:49:18.450Z,21.35
2023-02-11T09:51:53.439Z,23.95
2023-02-11T09:54:36.331Z,21.27
2023-02-11T09:59:30.124Z,21.17
2023-02-11T10:02:07.717Z,21.80
2023-02-11T10:04:47.498Z,22.40
2023-02-11T10:07:43.089Z,22.55
2023-02-11T10:10:32.644Z,21.63
2023-02-11T10:13:32.372Z,18.50
2023-02-11T10:16:20.759Z,21.20
2023-02-11T10:19:26.218Z,23.00
2023-02-11T10:22:22.135Z,20.65
2023-02-11T10:25:00.352Z,19.02
2023-02-11T10:27:33.401Z,20.23
2023-02-11T10:30:06.239Z,20.58
2023-02-11T10:33:03.805Z,18.15
2023-02-11T10:35:31.535Z,19.38
2023-02-11T10:37:59.677Z,16.65
2023-02-11T10:40:30.878Z,15.10
2023-02-11T10:43:00.614Z,16.30
2023-02-11T10:45:35.919Z,17.13
2023-02-11T10:48:40.374Z,16.25
2023-02-11T10:51:28.379Z,15.45
2023-02-11T10:54:04.266Z,15.60
2023-02-11T10:56:40.844Z,15.23
2023-02-11T10:59:19.714Z,16.00
2023-02-11T11:02:02.157Z,12.60
2023-02-11T11:04:34.930Z,14.60
2023-02-11T11:07:22.553Z,15.82
2023-02-11T11:10:03.718Z,13.80
2023-02-11T11:12:44.591Z,12.63
2023-02-11T11:15:11.299Z,13.50
2023-02-11T11:17:38.443Z,12.73
2023-02-11T11:20:27.478Z,12.43
2023-02-11T11:23:22.650Z,13.15
2023-02-11T11:26:04.578Z,12.05
2023-02-11T11:28:38.684Z,12.10
2023-02-11T11:31:11.999Z,12.48
2023-02-11T11:33:44.203Z,12.07
2023-02-11T11:36:14.446Z,12.00
2023-02-11T11:38:50.208Z,12.90
2023-02-11T11:41:28.344Z,11.77
2023-02-11T11:43:57.309Z,10.95
2023-02-11T11:46:32.278Z,11.50
2023-02-11T11:49:17.741Z,11.27
2023-02-11T11:51:54.999Z,11.02
2023-02-11T11:54:24.899Z,11.00
2023-02-11T11:56:59.775Z,10.27
2023-02-11T11:59:28.136Z,9.07
2023-02-11T12:02:10.198Z,9.43
2023-02-11T12:05:02.065Z,9.88
2023-02-11T12:07:49.402Z,9.13
2023-02-11T12:10:19.105Z,8.55
2023-02-11T12:12:59.746Z,9.23
2023-02-11T12:15:54.013Z,8.25
2023-02-11T12:18:38.688Z,8.25
2023-02-11T12:21:20.253Z,8.25
2023-02-11T12:24:24.669Z,7.55
2023-02-11T12:27:02.213Z,8.15
2023-02-11T12:29:43.250Z,8.63
2023-02-11T12:32:32.017Z,8.93
2023-02-11T12:35:06.742Z,9.15
2023-02-11T12:37:50.283Z,7.30
2023-02-11T12:40:51.364Z,7.35
2023-02-11T12:43:21.156Z,9.23
2023-02-11T12:46:12.975Z,8.10
2023-02-11T12:49:13.084Z,7.38
2023-02-11T12:51:48.792Z,7.65
2023-02-11T12:54:38.340Z,6.43
2023-02-11T12:57:19.801Z,6.50
2023-02-11T13:00:17.254Z,5.70
2023-02-11T13:03:10.906Z,6.35
2023-02-11T13:05:43.146Z,5.13
2023-02-11T13:08:18.962Z,6.18
2023-02-11T13:11:20.236Z,6.05
2023-02-11T13:13:57.657Z,5.35
2023-02-11T13:16:27.474Z,6.30
2023-02-11T13:19:30.967Z,5.65
2023-02-11T13:22:01.520Z,6.45
2023-02-11T13:24:31.101Z,6.32
2023-02-11T13:27:17.001Z,5.60
2023-02-11T13:29:43.897Z,5.05
2023-02-11T13:32:14.989Z,5.43
2023-02-11T13:34:44.508Z,5.22
2023-02-11T13:37:36.268Z,5.63
2023-02-11T13:40:19.169Z,5.15
2023-02-11T13:43:18.902Z,5.63
2023-02-11T13:45:48.081Z,4.63
2023-02-11T13:48:30.684Z,5.30
2023-02-11T13:51:13.164Z,6.10
2023-02-11T13:53:52.685Z,5.30
2023-02-11T13:56:40.598Z,5.50
2023-02-11T13:59:33.358Z,5.43
2023-02-11T14:02:18.684Z,6.03
2023-02-11T14:05:22.273Z,5.65
2023-02-11T14:08:26.269Z,4.95
2023-02-11T14:11:20.245Z,5.10
2023-02-11T14:13:52.431Z,5.18
2023-02-11T14:16:36.414Z,5.13
2023-02-11T14:19:04.076Z,6.03
2023-02-11T14:21:36.340Z,5.93
2023-02-11T14:24:04.767Z,6.03
2023-02-11T14:26:56.660Z,6.22
2023-02-11T14:29:38.305Z,6.43
2023-02-11T14:32:24.684Z,8.02
2023-02-11T14:35:26.894Z,6.75
2023-02-11T14:38:00.696Z,6.30
2023-02-11T14:41:16.938Z,5.95
2023-02-11T14:44:11.086Z,5.40
2023-02-11T14:46:37.917Z,6.70
2023-02-11T14:49:05.826Z,6.90
2023-02-11T14:51:38.377Z,7.93
2023-02-11T14:57:15.222Z,6.25
2023-02-11T15:00:00.128Z,6.93
2023-02-11T15:02:34.768Z,7.95
2023-02-11T15:05:37.100Z,5.70
2023-02-11T15:08:07.369Z,5.20
2023-02-11T15:10:41.111Z,6.05
2023-02-11T15:13:09.049Z,5.97
2023-02-11T15:15:40.753Z,5.25
2023-02-11T15:18:16.906Z,6.20
2023-02-11T15:20:43.656Z,6.78
2023-02-11T15:23:24.620Z,6.00
2023-02-11T15:25:55.570Z,6.38
2023-02-11T15:28:29.644Z,5.90
2023-02-11T15:31:17.219Z,7.07
2023-02-11T15:33:44.107Z,6.70
2023-02-11T15:36:12.731Z,6.05
2023-02-11T15:38:40.750Z,5.75
2023-02-11T15:41:08.086Z,6.60
2023-02-11T15:43:46.924Z,6.20
2023-02-11T15:46:22.911Z,7.70
2023-02-11T15:48:52.348Z,6.03
2023-02-11T15:51:37.469Z,7.50
2023-02-11T15:54:15.175Z,7.38
2023-02-11T15:56:47.949Z,6.90
2023-02-11T15:59:30.511Z,7.18
2023-02-11T16:02:05.340Z,7.80
2023-02-11T16:04:32.238Z,8.65
2023-02-11T16:07:02.207Z,8.88
2023-02-11T16:09:36.156Z,13.30
2023-02-11T16:12:22.103Z,21.90
2023-02-11T16:14:48.815Z,18.23
2023-02-11T16:17:18.378Z,19.65
2023-02-11T16:19:50.715Z,8.93
2023-02-11T16:22:22.583Z,7.32
2023-02-11T16:24:52.324Z,7.97
2023-02-11T16:27:42.211Z,7.63
2023-02-11T16:30:23.978Z,15.88
2023-02-11T16:32:53.150Z,15.02
2023-02-11T16:35:20.327Z,19.20
2023-02-11T16:37:49.793Z,26.02
2023-02-11T16:40:17.732Z,12.50
2023-02-11T16:42:47.343Z,9.80
2023-02-11T16:45:15.370Z,9.80
2023-02-11T16:47:43.617Z,8.13
2023-02-11T16:50:18.837Z,8.75
2023-02-11T16:52:46.288Z,6.82
2023-02-11T16:55:13.303Z,7.90
2023-02-11T16:57:39.953Z,7.13
2023-02-11T17:00:07.762Z,7.10
2023-02-11T17:02:36.747Z,5.95
2023-02-11T17:05:07.276Z,6.55
2023-02-11T17:07:36.183Z,5.90
2023-02-11T17:10:03.087Z,8.38
2023-02-11T17:12:29.822Z,9.60
2023-02-11T17:14:56.608Z,8.70
2023-02-11T17:17:23.687Z,9.05
2023-02-11T17:19:51.201Z,8.68
2023-02-11T17:22:18.703Z,7.95
2023-02-11T17:24:45.617Z,7.88
2023-02-11T17:27:15.174Z,9.23
2023-02-11T17:29:41.854Z,8.00
2023-02-11T17:32:08.816Z,8.00
2023-02-11T17:34:35.643Z,8.13
2023-02-11T17:37:09.070Z,7.70
2023-02-11T17:39:39.927Z,8.15
2023-02-11T17:42:07.289Z,8.05
2023-02-11T17:44:37.538Z,7.95
2023-02-11T17:47:04.429Z,8.68
2023-02-11T17:49:31.257Z,8.55
2023-02-11T17:51:58.437Z,8.63
2023-02-11T17:54:25.460Z,8.68
2023-02-11T17:56:55.143Z,8.95
2023-02-11T17:59:25.132Z,9.68
2023-02-11T18:01:51.866Z,10.52
2023-02-11T18:04:19.918Z,8.68
2023-02-11T18:06:47.317Z,9.27
2023-02-11T18:09:14.226Z,8.10
2023-02-11T18:11:41.109Z,8.35
2023-02-11T18:14:11.056Z,7.63
2023-02-11T18:16:39.679Z,8.43
2023-02-11T18:19:07.576Z,8.45
2023-02-11T18:21:35.420Z,8.68
2023-02-11T18:24:06.571Z,8.52
2023-02-11T18:26:33.947Z,10.30
2023-02-11T18:29:00.698Z,9.57
2023-02-11T18:31:28.049Z,8.88
2023-02-11T18:33:54.876Z,8.93
2023-02-11T18:36:22.500Z,8.23
2023-02-11T18:38:49.266Z,8.27
2023-02-11T18:41:16.189Z,8.77
2023-02-11T18:43:43.074Z,8.25
2023-02-11T18:46:12.560Z,9.43
2023-02-11T18:48:40.458Z,9.40
2023-02-11T18:51:12.648Z,12.95
2023-02-11T18:53:39.486Z,11.32
2023-02-11T18:56:08.741Z,11.48
2023-02-11T18:58:37.526Z,11.15
2023-02-11T19:01:11.472Z,14.15
2023-02-11T19:03:41.040Z,19.42
2023-02-11T19:06:12.890Z,13.90
2023-02-11T19:08:39.642Z,12.02
2023-02-11T19:11:06.361Z,9.70
2023-02-11T19:13:33.057Z,8.27
2023-02-11T19:15:59.748Z,9.20
2023-02-11T19:18:26.647Z,9.75
2023-02-11T19:20:53.486Z,9.65
2023-02-11T19:23:20.265Z,9.32
2023-02-11T19:25:47.875Z,9.00
2023-02-11T19:28:15.527Z,8.80
2023-02-11T19:30:43.621Z,8.25
2023-02-11T19:33:10.916Z,7.97
2023-02-11T19:35:37.676Z,8.20
2023-02-11T19:38:05.372Z,7.82
2023-02-11T19:40:32.656Z,8.60
2023-02-11T19:42:59.430Z,9.10
2023-02-11T19:45:27.079Z,8.45
2023-02-11T19:47:57.595Z,8.80
2023-02-11T19:50:24.791Z,8.43
2023-02-11T19:52:57.215Z,8.18
2023-02-11T19:55:24.102Z,8.18
2023-02-11T19:57:51.034Z,8.80
2023-02-11T20:00:21.173Z,8.48
2023-02-11T20:02:47.949Z,8.68
2023-02-11T20:05:15.081Z,8.82
2023-02-11T20:07:44.890Z,8.68
2023-02-11T20:10:13.512Z,8.20
2023-02-11T20:12:40.358Z,8.45
2023-02-11T20:15:08.795Z,8.77
2023-02-11T20:17:35.621Z,9.10
2023-02-11T20:20:02.509Z,8.95
2023-02-11T20:22:29.451Z,8.68
2023-02-11T20:24:56.623Z,9.23
2023-02-11T20:27:24.377Z,9.68
2023-02-11T20:29:51.927Z,9.40
2023-02-11T20:32:20.073Z,9.82
2023-02-11T20:34:47.195Z,10.25
2023-02-11T20:37:13.976Z,11.25
2023-02-11T20:39:41.997Z,10.80
2023-02-11T20:42:11.609Z,11.00
2023-02-11T20:44:39.077Z,11.10
2023-02-11T20:47:05.828Z,12.55
2023-02-11T20:49:35.351Z,12.35
2023-02-11T20:52:02.058Z,12.70
2023-02-11T20:54:28.741Z,11.52
2023-02-11T20:56:56.734Z,11.98
2023-02-11T20:59:24.001Z,12.25
2023-02-11T21:01:54.035Z,12.05
2023-02-11T21:04:29.868Z,13.32
2023-02-11T21:06:59.520Z,13.35
2023-02-11T21:09:29.038Z,12.23
2023-02-11T21:11:55.953Z,12.02
2023-02-11T21:14:24.576Z,11.52
2023-02-11T21:16:52.378Z,12.77
2023-02-11T21:19:20.171Z,12.50
2023-02-11T21:21:47.277Z,11.43
2023-02-11T21:24:14.340Z,11.15
2023-02-11T21:26:41.125Z,12.25
2023-02-11T21:29:08.325Z,11.88
2023-02-11T21:31:36.069Z,12.00
2023-02-11T21:34:03.053Z,12.75
2023-02-11T21:36:30.631Z,11.82
2023-02-11T21:38:57.431Z,12.40
2023-02-11T21:41:24.781Z,13.43
2023-02-11T21:43:52.178Z,13.32
2023-02-11T21:46:19.600Z,12.88
2023-02-11T21:48:46.857Z,12.95
2023-02-11T21:51:19.237Z,11.85
2023-02-11T21:53:46.356Z,12.13
2023-02-11T21:56:16.678Z,11.35
2023-02-11T21:58:44.077Z,11.98
2023-02-11T22:01:20.189Z,11.77
2023-02-11T22:03:47.673Z,11.77
2023-02-11T22:06:23.225Z,12.77
2023-02-11T22:08:50.470Z,11.98
2023-02-11T22:11:17.775Z,12.73
2023-02-11T22:13:45.088Z,12.23
2023-02-11T22:16:14.813Z,12.90
2023-02-11T22:18:42.749Z,12.00
2023-02-11T22:21:12.216Z,13.45
2023-02-11T22:23:45.389Z,12.52
2023-02-11T22:26:14.658Z,12.57
2023-02-11T22:28:41.524Z,12.90
2023-02-11T22:31:25.625Z,12.98
2023-02-11T22:33:52.594Z,12.07
2023-02-11T22:36:34.466Z,12.75
2023-02-11T22:39:07.031Z,12.23
2023-02-11T22:44:00.720Z,12.85
2023-02-11T22:46:27.603Z,11.95
2023-02-11T22:48:54.953Z,12.73
2023-02-11T22:51:24.590Z,12.65
2023-02-11T22:53:56.402Z,12.80
2023-02-11T22:56:24.078Z,11.50
2023-02-11T22:58:51.972Z,11.02
2023-02-11T23:01:19.500Z,12.57
2023-02-11T23:03:46.248Z,12.38
2023-02-11T23:06:12.965Z,12.80
2023-02-11T23:08:42.889Z,13.40
2023-02-11T23:11:11.191Z,12.48
2023-02-11T23:13:40.089Z,12.32
2023-02-11T23:16:10.540Z,13.10
2023-02-11T23:18:39.121Z,13.73
2023-02-11T23:21:12.378Z,13.02
2023-02-11T23:23:39.603Z,12.45
2023-02-11T23:26:10.517Z,12.60
2023-02-11T23:28:37.275Z,12.88
2023-02-11T23:31:18.362Z,12.60
2023-02-11T23:33:45.939Z,13.20
2023-02-11T23:36:13.035Z,12.38
2023-02-11T23:38:39.837Z,12.23
2023-02-11T23:41:06.572Z,13.25
2023-02-11T23:43:33.286Z,13.57
2023-02-11T23:46:04.049Z,13.80
2023-02-11T23:48:31.383Z,13.00
2023-02-11T23:50:58.022Z,13.25
2023-02-11T23:53:24.752Z,14.52
2023-02-11T23:55:51.519Z,13.75
2023-02-11T23:58:18.176Z,13.43
